createdAt,value
2018-06-14T00:00:16.322Z,13.70
2018-06-14T00:02:45.374Z,13.70
2018-06-14T00:05:14.046Z,13.70
2018-06-14T00:07:42.864Z,13.70
2018-06-14T00:10:12.400Z,13.70
2018-06-14T00:12:41.239Z,13.70
2018-06-14T00:15:10.932Z,13.70
2018-06-14T00:17:39.529Z,13.70
2018-06-14T00:20:09.079Z,13.70
2018-06-14T00:22:37.627Z,13.70
2018-06-14T00:25:06.288Z,13.70
2018-06-14T00:27:34.935Z,13.70
2018-06-14T00:32:31.918Z,13.70
2018-06-14T00:35:00.478Z,13.70
2018-06-14T00:37:29.079Z,13.60
2018-06-14T00:39:57.690Z,13.60
2018-06-14T00:42:26.324Z,13.70
2018-06-14T00:44:54.949Z,13.60
2018-06-14T00:47:23.624Z,13.70
2018-06-14T00:49:52.291Z,13.60
2018-06-14T00:52:20.927Z,13.50
2018-06-14T00:54:49.592Z,13.60
2018-06-14T00:57:29.331Z,13.60
2018-06-14T00:59:57.950Z,13.60
2018-06-14T01:02:27.174Z,13.50
2018-06-14T01:04:55.787Z,13.50
2018-06-14T01:07:24.622Z,13.50
2018-06-14T01:09:53.199Z,13.40
2018-06-14T01:12:21.833Z,13.50
2018-06-14T01:14:50.554Z,13.40
2018-06-14T01:17:19.208Z,13.40
2018-06-14T01:19:47.845Z,13.30
2018-06-14T01:22:16.507Z,13.30
2018-06-14T01:24:45.177Z,13.30
2018-06-14T01:27:13.813Z,13.40
2018-06-14T01:32:10.709Z,13.50
2018-06-14T01:34:39.373Z,13.50
2018-06-14T01:39:36.210Z,13.50
2018-06-14T01:42:04.914Z,13.40
2018-06-14T01:44:33.482Z,13.40
2018-06-14T01:47:02.096Z,13.50
2018-06-14T01:49:30.734Z,13.50
2018-06-14T01:51:59.344Z,13.50
2018-06-14T01:54:27.986Z,13.40
2018-06-14T01:56:56.615Z,13.40
2018-06-14T01:59:25.416Z,13.40
2018-06-14T02:01:54.051Z,13.40
2018-06-14T02:04:22.603Z,13.30
2018-06-14T02:06:51.187Z,13.30
2018-06-14T02:09:19.774Z,13.30
2018-06-14T02:11:48.412Z,13.20
2018-06-14T02:16:45.317Z,13.20
2018-06-14T02:19:13.948Z,13.20
2018-06-14T02:21:42.568Z,13.20
2018-06-14T02:24:11.282Z,13.20
2018-06-14T02:26:39.987Z,13.30
2018-06-14T02:29:08.603Z,13.30
2018-06-14T02:31:37.178Z,13.30
2018-06-14T02:34:05.816Z,13.30
2018-06-14T02:36:34.456Z,13.20
2018-06-14T02:39:03.106Z,13.20
2018-06-14T02:41:31.667Z,13.20
2018-06-14T02:44:00.464Z,13.20
2018-06-14T02:46:29.128Z,13.20
2018-06-14T02:48:57.759Z,13.20
2018-06-14T02:51:26.577Z,13.20
2018-06-14T02:53:55.230Z,13.10
2018-06-14T02:56:23.889Z,13.00
2018-06-14T02:58:52.563Z,13.00
2018-06-14T03:01:21.195Z,13.10
2018-06-14T03:03:49.908Z,13.10
2018-06-14T03:06:18.578Z,13.10
2018-06-14T03:08:47.283Z,13.10
2018-06-14T03:11:15.905Z,13.00
2018-06-14T03:13:44.660Z,13.00
2018-06-14T03:16:13.335Z,13.00
2018-06-14T03:18:41.973Z,13.00
2018-06-14T03:21:10.608Z,13.00
2018-06-14T03:23:39.347Z,13.00
2018-06-14T03:26:08.051Z,13.00
2018-06-14T03:31:04.970Z,12.80
2018-06-14T03:33:33.612Z,12.90
2018-06-14T03:36:02.221Z,12.80
2018-06-14T03:38:30.859Z,12.70
2018-06-14T03:40:59.529Z,12.70
2018-06-14T03:43:28.222Z,12.80
2018-06-14T03:45:56.939Z,12.80
2018-06-14T03:48:30.558Z,12.80
2018-06-14T03:50:59.144Z,12.80
2018-06-14T03:53:27.760Z,12.80
2018-06-14T03:55:56.345Z,12.90
2018-06-14T03:58:25.125Z,12.90
2018-06-14T04:00:53.746Z,13.00
2018-06-14T04:03:22.374Z,13.00
2018-06-14T04:05:50.971Z,13.00
2018-06-14T04:08:19.593Z,13.10
2018-06-14T04:13:16.461Z,13.10
2018-06-14T04:15:45.067Z,13.10
2018-06-14T04:18:13.679Z,13.20
2018-06-14T04:20:42.298Z,13.10
2018-06-14T04:23:11.030Z,13.10
2018-06-14T04:25:39.622Z,13.10
2018-06-14T04:28:08.236Z,13.00
2018-06-14T04:30:36.867Z,13.00
2018-06-14T04:33:05.479Z,12.90
2018-06-14T04:35:34.354Z,12.90
2018-06-14T04:38:02.946Z,13.00
2018-06-14T04:40:31.527Z,13.00
2018-06-14T04:43:00.154Z,13.00
2018-06-14T04:45:28.770Z,13.00
2018-06-14T04:47:57.334Z,13.10
2018-06-14T04:50:25.946Z,13.10
2018-06-14T04:52:54.586Z,13.20
2018-06-14T04:55:23.190Z,13.20
2018-06-14T04:57:51.828Z,13.20
2018-06-14T05:00:20.461Z,13.20
2018-06-14T05:02:49.153Z,13.10
2018-06-14T05:05:17.832Z,13.10
2018-06-14T05:07:46.472Z,13.10
2018-06-14T05:10:15.208Z,13.10
2018-06-14T05:12:43.819Z,13.10
2018-06-14T05:15:12.479Z,13.10
2018-06-14T05:17:41.150Z,13.20
2018-06-14T05:20:09.832Z,13.20
2018-06-14T05:22:38.406Z,13.20
2018-06-14T05:25:07.070Z,13.30
2018-06-14T05:27:35.771Z,13.30
2018-06-14T05:30:04.519Z,13.40
2018-06-14T05:32:33.120Z,13.40
2018-06-14T05:35:01.910Z,13.30
2018-06-14T05:37:30.635Z,13.30
2018-06-14T05:39:59.223Z,13.30
2018-06-14T05:42:28.556Z,13.40
2018-06-14T05:47:26.119Z,13.30
2018-06-14T05:49:54.753Z,13.40
2018-06-14T05:52:23.459Z,13.40
2018-06-14T05:54:52.070Z,13.40
2018-06-14T05:57:20.860Z,13.40
2018-06-14T05:59:49.469Z,13.40
2018-06-14T06:02:18.110Z,13.50
2018-06-14T06:04:46.916Z,13.50
2018-06-14T06:07:15.539Z,13.50
2018-06-14T06:09:44.152Z,13.50
2018-06-14T06:12:12.731Z,13.60
2018-06-14T06:14:41.389Z,13.60
2018-06-14T06:17:10.022Z,13.60
2018-06-14T06:19:38.636Z,13.50
2018-06-14T06:22:07.230Z,13.60
2018-06-14T06:24:35.951Z,13.60
2018-06-14T06:27:04.680Z,13.60
2018-06-14T06:29:33.318Z,13.60
2018-06-14T06:32:01.995Z,13.60
2018-06-14T06:34:30.728Z,13.60
2018-06-14T06:36:59.392Z,13.60
2018-06-14T06:39:29.857Z,13.60
2018-06-14T06:41:58.579Z,13.70
2018-06-14T06:44:27.262Z,13.70
2018-06-14T06:46:55.958Z,13.80
2018-06-14T06:49:24.781Z,13.80
2018-06-14T06:51:53.510Z,13.80
2018-06-14T06:54:22.379Z,13.80
2018-06-14T06:56:51.093Z,13.80
2018-06-14T06:59:19.801Z,13.90
2018-06-14T07:01:48.599Z,13.90
2018-06-14T07:04:17.442Z,13.90
2018-06-14T07:06:46.128Z,14.00
2018-06-14T07:09:14.840Z,14.00
2018-06-14T07:11:43.499Z,14.10
2018-06-14T07:14:12.418Z,14.10
2018-06-14T07:16:41.154Z,14.20
2018-06-14T07:19:09.879Z,14.40
2018-06-14T07:21:38.628Z,14.80
2018-06-14T07:24:07.399Z,15.30
2018-06-14T07:26:36.137Z,15.80
2018-06-14T07:29:04.899Z,16.20
2018-06-14T07:31:33.528Z,16.50
2018-06-14T07:34:02.173Z,16.80
2018-06-14T07:36:30.934Z,17.10
2018-06-14T07:38:59.648Z,17.30
2018-06-14T07:41:28.606Z,17.40
2018-06-14T07:43:57.290Z,17.50
2018-06-14T07:46:26.012Z,17.50
2018-06-14T07:48:54.690Z,17.60
2018-06-14T07:51:23.399Z,17.60
2018-06-14T07:53:52.047Z,17.50
2018-06-14T07:56:20.694Z,17.60
2018-06-14T07:58:49.422Z,17.60
2018-06-14T08:01:18.331Z,17.70
2018-06-14T08:03:47.251Z,17.80
2018-06-14T08:06:18.153Z,17.80
2018-06-14T08:11:40.664Z,17.90
2018-06-14T08:14:09.473Z,18.00
2018-06-14T08:16:38.227Z,18.00
2018-06-14T08:19:08.104Z,18.00
2018-06-14T08:21:36.923Z,18.00
2018-06-14T08:24:05.679Z,18.10
2018-06-14T08:26:34.391Z,18.10
2018-06-14T08:29:03.314Z,18.20
2018-06-14T08:31:32.329Z,18.00
2018-06-14T08:34:03.050Z,18.00
2018-06-14T08:36:31.759Z,18.20
2018-06-14T08:39:00.476Z,18.10
2018-06-14T08:41:29.288Z,18.20
2018-06-14T08:43:58.000Z,18.40
2018-06-14T08:46:26.683Z,18.50
2018-06-14T08:48:55.496Z,18.70
2018-06-14T08:51:25.132Z,18.80
2018-06-14T08:53:53.887Z,18.60
2018-06-14T08:56:22.622Z,18.70
2018-06-14T08:58:51.403Z,18.70
2018-06-14T09:01:20.050Z,18.70
2018-06-14T09:03:48.731Z,18.80
2018-06-14T09:06:17.379Z,18.90
2018-06-14T09:08:46.178Z,18.90
2018-06-14T09:11:14.916Z,18.80
2018-06-14T09:13:43.566Z,18.90
2018-06-14T09:16:12.225Z,19.00
2018-06-14T09:18:40.900Z,19.00
2018-06-14T09:21:10.527Z,19.00
2018-06-14T09:23:39.243Z,19.20
2018-06-14T09:26:07.866Z,19.30
2018-06-14T09:28:36.621Z,19.40
2018-06-14T09:31:05.343Z,19.50
2018-06-14T09:33:33.995Z,19.50
2018-06-14T09:36:02.707Z,19.30
2018-06-14T09:38:31.478Z,19.40
2018-06-14T09:41:00.143Z,19.70
2018-06-14T09:43:28.881Z,20.00
2018-06-14T09:45:57.578Z,20.00
2018-06-14T09:48:26.280Z,19.80
2018-06-14T09:50:54.925Z,19.80
2018-06-14T09:53:23.593Z,19.70
2018-06-14T09:55:52.259Z,19.80
2018-06-14T09:58:20.963Z,19.80
2018-06-14T10:00:49.581Z,20.00
2018-06-14T10:03:18.206Z,20.20
2018-06-14T10:05:46.871Z,20.10
2018-06-14T10:08:15.518Z,20.00
2018-06-14T10:10:44.187Z,20.00
2018-06-14T10:13:12.898Z,20.20
2018-06-14T10:15:41.598Z,20.10
2018-06-14T10:18:10.441Z,20.20
2018-06-14T10:20:39.963Z,20.20
2018-06-14T10:23:09.181Z,20.20
2018-06-14T10:25:37.914Z,20.20
2018-06-14T10:30:34.804Z,20.10
2018-06-14T10:33:03.463Z,20.20
2018-06-14T10:35:32.167Z,20.40
2018-06-14T10:38:00.755Z,20.60
2018-06-14T10:40:29.480Z,20.60
2018-06-14T10:43:02.259Z,20.50
2018-06-14T10:45:31.309Z,20.40
2018-06-14T10:50:28.386Z,20.70
2018-06-14T10:52:57.165Z,20.80
2018-06-14T10:55:25.862Z,20.80
2018-06-14T10:57:54.590Z,20.80
2018-06-14T11:00:23.258Z,20.80
2018-06-14T11:02:51.952Z,20.80
2018-06-14T11:05:20.660Z,20.90
2018-06-14T11:07:58.747Z,20.90
2018-06-14T11:10:27.388Z,20.80
2018-06-14T11:12:56.062Z,20.50
2018-06-14T11:15:24.758Z,20.50
2018-06-14T11:17:53.451Z,20.70
2018-06-14T11:20:22.158Z,20.80
2018-06-14T11:22:50.822Z,21.00
2018-06-14T11:25:19.505Z,21.20
2018-06-14T11:27:48.347Z,21.40
2018-06-14T11:30:17.432Z,21.40
2018-06-14T11:32:46.142Z,21.20
2018-06-14T11:37:52.896Z,21.10
2018-06-14T11:40:21.544Z,21.00
2018-06-14T11:42:50.187Z,21.20
2018-06-14T11:45:18.902Z,21.30
2018-06-14T11:47:47.554Z,21.30
2018-06-14T11:50:16.164Z,21.20
2018-06-14T11:52:44.884Z,21.20
2018-06-14T11:55:13.598Z,21.30
2018-06-14T11:57:42.303Z,21.30
2018-06-14T12:00:11.338Z,21.40
2018-06-14T12:02:40.008Z,21.30
2018-06-14T12:05:08.698Z,21.20
2018-06-14T12:07:37.430Z,21.10
2018-06-14T12:10:06.084Z,21.20
2018-06-14T12:12:34.914Z,21.40
2018-06-14T12:15:03.661Z,21.40
2018-06-14T12:17:32.275Z,21.40
2018-06-14T12:20:01.058Z,21.50
2018-06-14T12:22:29.805Z,21.70
2018-06-14T12:24:58.519Z,21.60
2018-06-14T12:27:27.233Z,21.70
2018-06-14T12:30:01.248Z,21.80
2018-06-14T12:32:29.897Z,21.90
2018-06-14T12:34:58.607Z,21.90
2018-06-14T12:37:27.284Z,21.80
2018-06-14T12:39:55.988Z,21.80
2018-06-14T12:42:24.688Z,21.90
2018-06-14T12:44:53.448Z,21.90
2018-06-14T12:47:22.095Z,21.90
2018-06-14T12:49:50.961Z,21.90
2018-06-14T12:52:19.634Z,21.90
2018-06-14T12:54:48.340Z,21.70
2018-06-14T12:57:17.109Z,21.60
2018-06-14T12:59:46.047Z,21.60
2018-06-14T13:02:19.481Z,21.60
2018-06-14T13:07:16.955Z,21.80
2018-06-14T13:09:46.318Z,21.80
2018-06-14T13:12:15.042Z,21.90
2018-06-14T13:17:12.132Z,21.90
2018-06-14T13:22:09.334Z,22.00
2018-06-14T13:24:41.334Z,22.10
2018-06-14T13:27:10.908Z,22.20
2018-06-14T13:29:39.828Z,22.20
2018-06-14T13:32:08.474Z,22.20
2018-06-14T13:34:37.446Z,22.30
2018-06-14T13:37:06.142Z,22.30
2018-06-14T13:39:40.055Z,22.30
2018-06-14T13:42:08.774Z,22.30
2018-06-14T13:44:37.425Z,22.30
2018-06-14T13:47:06.118Z,22.30
2018-06-14T13:49:34.776Z,22.40
2018-06-14T13:52:03.451Z,22.40
2018-06-14T13:54:32.141Z,22.50
2018-06-14T13:57:01.063Z,22.60
2018-06-14T13:59:29.912Z,22.60
2018-06-14T14:01:58.547Z,22.70
2018-06-14T14:04:27.238Z,22.80
2018-06-14T14:07:00.969Z,22.70
2018-06-14T14:09:29.720Z,22.80
2018-06-14T14:11:58.366Z,22.90
2018-06-14T14:14:27.124Z,23.00
2018-06-14T14:16:55.757Z,22.90
2018-06-14T14:19:24.538Z,22.70
2018-06-14T14:21:53.290Z,22.60
2018-06-14T14:26:50.897Z,22.50
2018-06-14T14:29:19.608Z,22.50
2018-06-14T14:31:48.295Z,22.50
2018-06-14T14:34:17.612Z,22.50
2018-06-14T14:36:46.331Z,22.70
2018-06-14T14:39:15.064Z,22.80
2018-06-14T14:41:43.751Z,22.80
2018-06-14T14:44:12.503Z,22.90
2018-06-14T14:46:41.187Z,22.90
2018-06-14T14:49:19.346Z,23.00
2018-06-14T14:51:47.934Z,23.10
2018-06-14T14:54:16.636Z,23.10
2018-06-14T14:59:13.671Z,23.20
2018-06-14T15:01:42.415Z,23.20
2018-06-14T15:04:11.380Z,23.20
2018-06-14T15:09:09.171Z,23.00
2018-06-14T15:11:37.826Z,22.80
2018-06-14T15:14:06.444Z,22.80
2018-06-14T15:16:35.062Z,22.80
2018-06-14T15:19:17.321Z,22.90
2018-06-14T15:21:45.922Z,22.80
2018-06-14T15:24:14.563Z,22.90
2018-06-14T15:26:43.339Z,22.90
2018-06-14T15:29:12.012Z,22.90
2018-06-14T15:31:40.695Z,22.60
2018-06-14T15:34:09.394Z,22.60
2018-06-14T15:36:38.054Z,22.60
2018-06-14T15:39:08.090Z,22.50
2018-06-14T15:41:36.763Z,22.50
2018-06-14T15:44:05.414Z,22.60
2018-06-14T15:46:34.221Z,22.70
2018-06-14T15:49:08.284Z,22.70
2018-06-14T15:51:36.972Z,22.70
2018-06-14T15:56:34.692Z,22.60
2018-06-14T15:59:09.716Z,22.50
2018-06-14T16:01:39.107Z,22.50
2018-06-14T16:04:08.200Z,22.50
2018-06-14T16:06:36.966Z,22.60
2018-06-14T16:09:08.258Z,22.70
2018-06-14T16:11:36.915Z,22.70
2018-06-14T16:14:05.781Z,22.60
2018-06-14T16:16:34.504Z,22.40
2018-06-14T16:19:12.557Z,22.40
2018-06-14T16:21:41.251Z,22.40
2018-06-14T16:24:09.874Z,22.50
2018-06-14T16:26:38.487Z,22.50
2018-06-14T16:29:07.599Z,22.50
2018-06-14T16:31:36.287Z,22.40
2018-06-14T16:34:04.942Z,22.30
2018-06-14T16:36:33.646Z,22.30
2018-06-14T16:39:11.843Z,22.10
2018-06-14T16:41:40.503Z,22.00
2018-06-14T16:44:09.171Z,21.80
2018-06-14T16:46:37.767Z,21.70
2018-06-14T16:49:06.640Z,21.60
2018-06-14T16:51:35.267Z,21.60
2018-06-14T16:54:03.847Z,21.60
2018-06-14T16:56:32.591Z,21.50
2018-06-14T16:59:01.234Z,21.40
2018-06-14T17:01:29.978Z,21.30
2018-06-14T17:03:58.592Z,21.10
2018-06-14T17:06:27.386Z,21.10
2018-06-14T17:08:55.968Z,21.00
2018-06-14T17:11:24.598Z,21.00
2018-06-14T17:13:53.440Z,20.90
2018-06-14T17:16:26.421Z,20.90
2018-06-14T17:19:13.128Z,20.90
2018-06-14T17:21:41.906Z,20.80
2018-06-14T17:24:10.655Z,20.80
2018-06-14T17:26:39.332Z,20.80
2018-06-14T17:32:14.683Z,20.60
2018-06-14T17:34:43.358Z,20.50
2018-06-14T17:37:12.109Z,20.40
2018-06-14T17:39:41.027Z,20.30
2018-06-14T17:42:09.672Z,20.30
2018-06-14T17:44:38.436Z,20.20
2018-06-14T17:47:07.203Z,20.20
2018-06-14T17:49:35.882Z,20.20
2018-06-14T17:52:04.570Z,20.20
2018-06-14T17:54:33.541Z,20.20
2018-06-14T17:57:02.171Z,20.20
2018-06-14T17:59:31.029Z,20.20
2018-06-14T18:01:59.658Z,20.20
2018-06-14T18:04:28.330Z,20.20
2018-06-14T18:06:56.931Z,20.10
2018-06-14T18:09:25.754Z,20.20
2018-06-14T18:11:54.435Z,20.10
2018-06-14T18:14:23.034Z,20.10
2018-06-14T18:16:51.699Z,20.10
2018-06-14T18:19:20.471Z,20.10
2018-06-14T18:21:49.104Z,20.00
2018-06-14T18:24:17.714Z,20.00
2018-06-14T18:26:46.531Z,20.00
2018-06-14T18:29:15.248Z,20.00
2018-06-14T18:31:43.910Z,19.90
2018-06-14T18:34:12.611Z,19.90
2018-06-14T18:36:41.319Z,19.90
2018-06-14T18:39:11.369Z,19.90
2018-06-14T18:41:40.115Z,19.90
2018-06-14T18:44:08.747Z,19.90
2018-06-14T18:46:37.819Z,19.90
2018-06-14T18:49:06.514Z,19.90
2018-06-14T18:51:35.739Z,19.80
2018-06-14T18:54:04.468Z,19.80
2018-06-14T18:56:33.264Z,19.70
2018-06-14T19:01:54.806Z,19.70
2018-06-14T19:04:23.498Z,19.70
2018-06-14T19:06:52.182Z,19.60
2018-06-14T19:09:20.919Z,19.60
2018-06-14T19:11:49.533Z,19.60
2018-06-14T19:14:18.164Z,19.50
2018-06-14T19:16:46.857Z,19.50
2018-06-14T19:19:15.736Z,19.50
2018-06-14T19:21:44.309Z,19.60
2018-06-14T19:24:13.020Z,19.50
2018-06-14T19:26:41.740Z,19.50
2018-06-14T19:29:10.529Z,19.40
2018-06-14T19:31:39.158Z,19.40
2018-06-14T19:34:07.943Z,19.30
2018-06-14T19:36:36.515Z,19.30
2018-06-14T19:39:07.554Z,19.20
2018-06-14T19:44:04.730Z,19.20
2018-06-14T19:46:33.402Z,19.10
2018-06-14T19:51:56.498Z,19.00
2018-06-14T19:54:26.342Z,18.90
2018-06-14T19:56:54.999Z,18.90
2018-06-14T19:59:23.823Z,18.90
2018-06-14T20:01:52.500Z,18.90
2018-06-14T20:04:21.436Z,18.80
2018-06-14T20:06:50.006Z,18.80
2018-06-14T20:12:05.067Z,18.80
2018-06-14T20:14:33.750Z,18.70
2018-06-14T20:17:02.413Z,18.70
2018-06-14T20:19:31.098Z,18.60
2018-06-14T20:21:59.726Z,18.60
2018-06-14T20:26:56.595Z,18.40
2018-06-14T20:29:38.967Z,18.30
2018-06-14T20:32:07.694Z,18.30
2018-06-14T20:34:36.383Z,18.20
2018-06-14T20:37:05.114Z,18.10
2018-06-14T20:39:33.766Z,18.00
2018-06-14T20:42:02.498Z,17.90
2018-06-14T20:44:31.110Z,17.90
2018-06-14T20:46:59.743Z,17.80
2018-06-14T20:49:37.697Z,17.70
2018-06-14T20:52:06.314Z,17.60
2018-06-14T20:54:35.063Z,17.50
2018-06-14T20:57:03.687Z,17.40
2018-06-14T20:59:32.346Z,17.40
2018-06-14T21:02:00.955Z,17.40
2018-06-14T21:04:29.627Z,17.30
2018-06-14T21:06:58.224Z,17.30
2018-06-14T21:09:26.879Z,17.30
2018-06-14T21:14:23.981Z,17.20
2018-06-14T21:16:52.647Z,17.20
2018-06-14T21:19:21.359Z,17.10
2018-06-14T21:21:50.065Z,17.10
2018-06-14T21:24:19.708Z,17.00
2018-06-14T21:26:48.406Z,16.90
2018-06-14T21:29:30.638Z,16.80
2018-06-14T21:31:59.287Z,16.70
2018-06-14T21:34:27.878Z,16.70
2018-06-14T21:36:56.539Z,16.60
2018-06-14T21:39:25.151Z,16.50
2018-06-14T21:41:53.763Z,16.40
2018-06-14T21:44:22.410Z,16.40
2018-06-14T21:46:51.016Z,16.30
2018-06-14T21:49:29.249Z,16.30
2018-06-14T21:51:57.914Z,16.30
2018-06-14T21:54:26.588Z,16.30
2018-06-14T21:56:55.238Z,16.20
2018-06-14T21:59:28.950Z,16.20
2018-06-14T22:01:57.619Z,16.10
2018-06-14T22:04:26.262Z,16.00
2018-06-14T22:06:54.902Z,15.90
2018-06-14T22:09:23.521Z,16.00
2018-06-14T22:11:52.187Z,15.90
2018-06-14T22:14:20.831Z,15.70
2018-06-14T22:22:11.056Z,15.70
2018-06-14T22:24:39.706Z,15.70
2018-06-14T22:27:08.348Z,15.70
2018-06-14T22:29:37.233Z,15.70
2018-06-14T22:34:45.249Z,15.50
2018-06-14T22:37:13.904Z,15.50
2018-06-14T22:39:42.566Z,15.50
2018-06-14T22:42:11.274Z,15.50
2018-06-14T22:44:39.887Z,15.50
2018-06-14T22:47:08.490Z,15.50
2018-06-14T22:49:37.177Z,15.60
2018-06-14T22:53:20.010Z,15.60
2018-06-14T22:55:48.675Z,15.50
2018-06-14T22:58:17.460Z,15.70
2018-06-14T23:01:49.844Z,15.60
2018-06-14T23:04:19.832Z,15.60
2018-06-14T23:06:48.518Z,15.60
2018-06-14T23:10:43.683Z,15.60
2018-06-14T23:13:14.592Z,15.60
2018-06-14T23:15:43.256Z,15.50
2018-06-14T23:20:58.645Z,15.50
2018-06-14T23:23:27.265Z,15.50
2018-06-14T23:25:55.832Z,15.50
2018-06-14T23:28:24.482Z,15.40
2018-06-14T23:30:53.116Z,15.40
2018-06-14T23:33:21.753Z,15.40
2018-06-14T23:35:50.432Z,15.40
2018-06-14T23:38:28.574Z,15.30
2018-06-14T23:40:57.243Z,15.30
2018-06-14T23:43:25.899Z,15.10
2018-06-14T23:45:54.536Z,15.00
2018-06-14T23:48:23.191Z,14.90
2018-06-14T23:50:51.837Z,14.90
2018-06-14T23:53:20.491Z,15.00
2018-06-14T23:55:49.146Z,14.90
2018-06-14T23:58:17.763Z,14.90
